Time;durP1;ratioP1;P1;durP2;ratioP2;P2;SDS_P1;SDS_P2;PMS_P1;PMS_P2;Temp;Humidity;BMP_temperature;BMP_pressure;BME280_temperature;BME280_humidity;BME280_pressure;Samples;Min_cycle;Max_cycle;Signal;HPM_P1;HPM_P2
2023/01/13 00:00:33;;;;;;;37.25;7.68;;;7.60;99.90;;;;;;5098293;28;20044;-47
2023/01/13 00:02:59;;;;;;;43.00;8.32;;;7.60;99.90;;;;;;5097981;28;20039;-50
2023/01/13 00:05:25;;;;;;;44.67;9.20;;;7.60;99.90;;;;;;5098434;28;20573;-50
2023/01/13 00:07:51;;;;;;;36.10;7.95;;;7.60;99.90;;;;;;5097346;28;20036;-48
2023/01/13 00:10:17;;;;;;;43.78;8.85;;;7.60;99.90;;;;;;5098699;28;20124;-47
2023/01/13 00:12:43;;;;;;;39.58;8.25;;;7.60;99.90;;;;;;5080461;28;20044;-46
2023/01/13 00:15:10;;;;;;;45.67;7.65;;;7.60;99.90;;;;;;5097891;28;20469;-47
2023/01/13 00:17:35;;;;;;;43.28;9.20;;;7.60;99.90;;;;;;5097288;28;20412;-47
2023/01/13 00:20:01;;;;;;;44.30;8.88;;;7.60;99.90;;;;;;5098273;28;20047;-46
2023/01/13 00:22:27;;;;;;;34.22;8.23;;;7.60;99.90;;;;;;5079382;28;20525;-47
2023/01/13 00:24:52;;;;;;;44.83;8.70;;;7.50;99.90;;;;;;5098002;28;20039;-47
2023/01/13 00:27:18;;;;;;;37.95;7.88;;;7.50;99.90;;;;;;5097555;28;20044;-47
2023/01/13 00:29:44;;;;;;;41.95;8.45;;;7.50;99.90;;;;;;5098857;28;20048;-46
2023/01/13 00:32:09;;;;;;;41.60;9.02;;;7.50;99.90;;;;;;5097640;28;20126;-46
2023/01/13 00:34:35;;;;;;;44.38;8.20;;;7.50;99.90;;;;;;5096976;28;20485;-47
2023/01/13 00:37:01;;;;;;;43.63;7.68;;;7.40;99.90;;;;;;5096906;28;20398;-46
2023/01/13 00:39:26;;;;;;;41.42;8.90;;;7.40;99.90;;;;;;5097567;28;20035;-46
2023/01/13 00:44:36;;;;;;;41.05;8.98;;;7.40;99.90;;;;;;5097205;28;20646;-47
2023/01/13 00:47:02;;;;;;;50.65;9.35;;;7.40;99.90;;;;;;5097489;28;20051;-47
2023/01/13 00:49:27;;;;;;;47.72;9.20;;;7.40;99.90;;;;;;5061844;28;20063;-46
2023/01/13 00:51:53;;;;;;;39.80;8.35;;;7.40;99.90;;;;;;5097190;28;20043;-47
2023/01/13 00:54:19;;;;;;;50.22;9.48;;;7.40;99.90;;;;;;5096295;28;20051;-46
2023/01/13 00:56:44;;;;;;;53.65;10.60;;;7.40;99.90;;;;;;5098016;28;20051;-47
2023/01/13 00:59:12;;;;;;;46.47;9.77;;;7.40;99.90;;;;;;5097640;28;20562;-48
2023/01/13 01:01:38;;;;;;;46.90;9.98;;;7.30;99.90;;;;;;5089855;28;20048;-46
2023/01/13 01:04:04;;;;;;;40.63;8.73;;;7.30;99.90;;;;;;5090386;28;20438;-46
2023/01/13 01:06:29;;;;;;;47.65;9.55;;;7.30;99.90;;;;;;5097055;28;20109;-46
2023/01/13 01:08:56;;;;;;;40.90;8.98;;;7.30;99.90;;;;;;5096415;28;20035;-47
2023/01/13 01:11:28;;;;;;;38.40;7.30;;;7.30;99.90;;;;;;5096856;28;20038;-45
2023/01/13 01:13:55;;;;;;;41.70;8.65;;;7.30;99.90;;;;;;5097060;28;20156;-48
2023/01/13 01:16:22;;;;;;;37.28;8.73;;;7.30;99.90;;;;;;5097304;28;20493;-47
2023/01/13 01:18:50;;;;;;;42.78;10.02;;;7.30;99.90;;;;;;5092416;28;20518;-47
2023/01/13 01:21:16;;;;;;;48.13;7.82;;;7.40;99.90;;;;;;5097445;28;20128;-46
2023/01/13 01:23:42;;;;;;;34.08;8.23;;;7.40;99.90;;;;;;5096671;28;20050;-47
2023/01/13 01:26:13;;;;;;;44.58;8.10;;;7.30;99.90;;;;;;5097524;28;20051;-45
2023/01/13 01:28:39;;;;;;;41.35;7.10;;;7.30;99.90;;;;;;5096586;28;20551;-47
2023/01/13 01:31:12;;;;;;;43.03;7.93;;;7.30;99.90;;;;;;5096895;28;20051;-46
2023/01/13 01:33:39;;;;;;;33.30;7.15;;;7.30;99.90;;;;;;5095956;28;20320;-47
2023/01/13 01:36:06;;;;;;;56.88;8.80;;;7.30;99.90;;;;;;5078661;28;20056;-48
2023/01/13 01:38:32;;;;;;;41.72;7.55;;;7.30;99.90;;;;;;5095835;28;20054;-47
2023/01/13 01:40:58;;;;;;;39.13;9.45;;;7.30;99.90;;;;;;5096374;28;20039;-47
2023/01/13 01:44:06;;;;;;;38.15;7.78;;;7.30;99.90;;;;;;5095821;28;20050;-46
2023/01/13 01:46:36;;;;;;;43.40;8.52;;;7.30;99.90;;;;;;5096178;28;20079;-51
2023/01/13 01:49:08;;;;;;;41.30;9.05;;;7.30;99.90;;;;;;5096559;28;20047;-48
2023/01/13 01:51:41;;;;;;;38.92;8.57;;;7.30;99.90;;;;;;5096056;28;20098;-47
2023/01/13 01:54:09;;;;;;;33.22;8.98;;;7.30;99.90;;;;;;5096144;28;20048;-46
2023/01/13 01:56:37;;;;;;;37.10;7.88;;;7.30;99.90;;;;;;5083224;28;20061;-46
2023/01/13 01:59:02;;;;;;;42.78;8.38;;;7.40;99.90;;;;;;5096690;28;20051;-46
2023/01/13 02:01:28;;;;;;;43.47;9.27;;;7.40;99.90;;;;;;5095456;28;20027;-47
2023/01/13 02:04:12;;;;;;;43.47;8.13;;;7.40;99.90;;;;;;5078023;28;20052;-46
2023/01/13 02:06:38;;;;;;;43.45;8.27;;;7.50;99.90;;;;;;5084961;28;20047;-47
2023/01/13 02:09:04;;;;;;;39.80;8.00;;;7.50;99.90;;;;;;5096090;28;20047;-47
2023/01/13 02:14:25;;;;;;;41.15;8.25;;;7.60;99.90;;;;;;5095740;28;20055;-47
2023/01/13 02:17:14;;;;;;;43.78;8.73;;;7.60;99.90;;;;;;5096004;28;20039;-46
2023/01/13 02:19:48;;;;;;;43.30;8.27;;;7.60;99.90;;;;;;5002390;28;20115;-50
2023/01/13 02:22:34;;;;;;;37.95;7.65;;;7.70;99.90;;;;;;5013456;28;20054;-47
2023/01/13 02:25:06;;;;;;;44.58;10.63;;;7.70;99.90;;;;;;5012130;28;20053;-46
2023/01/13 02:27:58;;;;;;;49.40;9.70;;;7.70;99.90;;;;;;5011874;28;20397;-46
2023/01/13 02:33:26;;;;;;;35.17;6.80;;;7.70;99.90;;;;;;5013248;28;20064;-47
2023/01/13 02:36:02;;;;;;;45.85;8.48;;;7.70;99.90;;;;;;5029758;28;20050;-46
2023/01/13 02:38:34;;;;;;;42.60;7.70;;;7.70;99.90;;;;;;5012362;28;20068;-46
2023/01/13 02:44:09;;;;;;;37.47;8.18;;;7.80;99.90;;;;;;5012033;28;20103;-47
2023/01/13 02:46:40;;;;;;;36.63;6.80;;;7.80;99.90;;;;;;5012367;28;20049;-46
2023/01/13 02:49:12;;;;;;;44.58;8.15;;;7.80;99.90;;;;;;5012799;28;20045;-46
2023/01/13 02:51:40;;;;;;;37.80;7.50;;;7.80;99.90;;;;;;4992190;28;20128;-47
2023/01/13 02:54:14;;;;;;;42.10;7.68;;;7.80;99.90;;;;;;5005356;28;20049;-49
2023/01/13 02:56:46;;;;;;;36.90;9.30;;;7.80;99.90;;;;;;5050405;28;20070;-47
2023/01/13 02:59:12;;;;;;;38.10;6.70;;;7.80;99.90;;;;;;5096035;28;20079;-46
2023/01/13 03:01:39;;;;;;;37.80;8.60;;;7.80;99.90;;;;;;5090055;28;20581;-47
2023/01/13 03:04:53;;;;;;;42.30;8.43;;;7.80;99.90;;;;;;5076702;28;20040;-47
2023/01/13 03:08:01;;;;;;;29.75;6.60;;;7.80;99.90;;;;;;5093813;28;20043;-47
2023/01/13 03:10:27;;;;;;;32.95;6.40;;;7.90;99.90;;;;;;5012345;28;20204;-46
2023/01/13 03:13:16;;;;;;;33.90;8.43;;;7.80;99.90;;;;;;4995104;28;20063;-46
2023/01/13 03:15:50;;;;;;;36.13;7.15;;;7.90;99.90;;;;;;5016159;28;20543;-47
2023/01/13 03:18:21;;;;;;;35.20;7.72;;;7.80;99.90;;;;;;5009825;28;20107;-46
2023/01/13 03:21:00;;;;;;;40.10;8.07;;;7.80;99.90;;;;;;5016135;28;20408;-46
2023/01/13 03:23:50;;;;;;;42.13;8.82;;;7.80;99.90;;;;;;5015687;28;20384;-46
2023/01/13 03:26:22;;;;;;;34.28;7.72;;;7.80;99.90;;;;;;4999561;28;20041;-46
2023/01/13 03:29:01;;;;;;;38.60;7.50;;;7.80;99.90;;;;;;5015883;28;20061;-49
2023/01/13 03:31:33;;;;;;;36.33;7.13;;;7.80;99.90;;;;;;5015625;28;20057;-47
2023/01/13 03:34:05;;;;;;;28.83;6.88;;;7.70;99.90;;;;;;5008415;28;20057;-47
2023/01/13 03:36:33;;;;;;;29.85;6.72;;;7.70;99.90;;;;;;5009212;28;20044;-46
2023/01/13 03:39:05;;;;;;;32.75;8.98;;;7.70;99.90;;;;;;5015869;28;20053;-47
2023/01/13 03:42:19;;;;;;;47.20;9.25;;;7.70;99.90;;;;;;4997096;28;20061;-46
2023/01/13 03:45:04;;;;;;;42.25;7.57;;;7.60;99.90;;;;;;4920274;29;20059;-47
2023/01/13 03:47:33;;;;;;;44.67;7.72;;;7.60;99.90;;;;;;4972901;28;20133;-46
2023/01/13 03:50:10;;;;;;;40.83;7.38;;;7.50;99.90;;;;;;4994103;28;20104;-46
2023/01/13 03:52:44;;;;;;;41.85;8.35;;;7.50;99.90;;;;;;4995431;28;20135;-51
2023/01/13 03:55:19;;;;;;;38.60;9.00;;;7.50;99.90;;;;;;4994993;28;20057;-46
2023/01/13 03:58:09;;;;;;;38.13;7.15;;;7.40;99.90;;;;;;4978806;28;20047;-46
2023/01/13 04:00:45;;;;;;;36.45;8.02;;;7.40;99.90;;;;;;4937175;29;20055;-46
2023/01/13 04:03:19;;;;;;;45.28;8.02;;;7.40;99.90;;;;;;4937023;29;20055;-46
2023/01/13 04:05:50;;;;;;;46.92;8.35;;;7.40;99.90;;;;;;4937772;29;20051;-48
2023/01/13 04:08:22;;;;;;;44.03;8.55;;;7.40;99.90;;;;;;4937493;29;20051;-46
2023/01/13 04:11:10;;;;;;;32.80;7.10;;;7.40;99.90;;;;;;4937863;29;20431;-47
2023/01/13 04:13:40;;;;;;;40.75;8.80;;;7.40;99.90;;;;;;4936686;29;20062;-46
2023/01/13 04:16:07;;;;;;;42.20;7.07;;;7.40;99.90;;;;;;4937129;28;20047;-47
2023/01/13 04:18:37;;;;;;;41.53;7.50;;;7.40;99.90;;;;;;4936341;28;20398;-46
2023/01/13 04:21:03;;;;;;;39.20;8.80;;;7.30;99.90;;;;;;4960737;28;20096;-47
2023/01/13 04:23:29;;;;;;;41.25;8.02;;;7.40;99.90;;;;;;5033983;28;20049;-46
2023/01/13 04:25:55;;;;;;;32.38;7.55;;;7.50;99.90;;;;;;5034660;28;20669;-47
2023/01/13 04:28:21;;;;;;;34.67;6.90;;;7.50;99.90;;;;;;5033602;28;20041;-47
2023/01/13 04:30:47;;;;;;;34.83;8.35;;;7.50;99.90;;;;;;5036006;28;20057;-47
2023/01/13 04:33:14;;;;;;;40.92;8.40;;;7.60;99.90;;;;;;5034462;28;20051;-47
2023/01/13 04:35:40;;;;;;;37.92;7.80;;;7.70;99.90;;;;;;5034662;28;20212;-46
2023/01/13 04:38:12;;;;;;;31.05;7.80;;;7.70;99.90;;;;;;5077393;28;20044;-46
2023/01/13 04:40:38;;;;;;;33.80;6.78;;;7.70;99.90;;;;;;5098338;28;20840;-47
2023/01/13 04:43:04;;;;;;;31.70;7.93;;;7.70;99.90;;;;;;5096851;28;20389;-46
2023/01/13 04:45:30;;;;;;;33.20;6.68;;;7.70;99.90;;;;;;5098019;28;20050;-46
2023/01/13 04:47:56;;;;;;;37.08;7.57;;;7.70;99.90;;;;;;5097215;28;20070;-46
2023/01/13 04:50:22;;;;;;;34.92;6.63;;;7.70;99.90;;;;;;5097464;28;20198;-46
2023/01/13 04:52:49;;;;;;;28.77;6.53;;;7.80;99.90;;;;;;5097842;28;20131;-46
2023/01/13 04:55:16;;;;;;;37.13;6.65;;;7.80;99.90;;;;;;5097649;28;20509;-49
2023/01/13 04:57:42;;;;;;;33.85;7.13;;;7.80;99.90;;;;;;5096959;28;20040;-47
2023/01/13 05:00:09;;;;;;;37.25;6.88;;;7.80;99.90;;;;;;5097065;28;20317;-47
2023/01/13 05:02:35;;;;;;;29.00;5.70;;;7.80;99.90;;;;;;5095726;28;20047;-46
2023/01/13 05:05:00;;;;;;;29.58;6.53;;;7.80;99.90;;;;;;5095512;28;20043;-47
2023/01/13 05:07:26;;;;;;;32.53;6.60;;;7.80;99.90;;;;;;5095398;28;20049;-46
2023/01/13 05:09:52;;;;;;;29.63;6.25;;;7.90;99.90;;;;;;5097074;28;20047;-46
2023/01/13 05:17:47;;;;;;;30.70;5.82;;;7.90;99.90;;;;;;5078442;28;20058;-48
2023/01/13 05:20:13;;;;;;;30.35;5.95;;;7.90;99.90;;;;;;5078574;28;20048;-47
2023/01/13 05:25:26;;;;;;;26.67;5.80;;;7.90;99.90;;;;;;5096738;28;20516;-48
2023/01/13 05:27:58;;;;;;;35.67;9.82;;;7.90;99.90;;;;;;5078518;28;20048;-46
2023/01/13 05:30:29;;;;;;;33.88;5.80;;;7.90;99.90;;;;;;5096241;28;20047;-45
2023/01/13 05:32:55;;;;;;;27.23;6.75;;;7.90;99.90;;;;;;5096114;28;20084;-46
2023/01/13 05:35:22;;;;;;;24.70;5.07;;;7.90;99.90;;;;;;5096752;28;20052;-48
2023/01/13 05:37:48;;;;;;;30.10;5.60;;;7.90;99.90;;;;;;5078378;28;20490;-46
2023/01/13 05:43:20;;;;;;;27.17;6.88;;;7.90;99.90;;;;;;5096411;28;20359;-46
2023/01/13 05:45:49;;;;;;;31.10;6.80;;;7.90;99.90;;;;;;5096741;28;20100;-47
2023/01/13 05:48:16;;;;;;;35.70;6.97;;;7.90;99.90;;;;;;5096724;28;20165;-46
2023/01/13 05:50:42;;;;;;;29.95;6.60;;;7.90;99.90;;;;;;5096777;28;20154;-48
2023/01/13 05:53:08;;;;;;;31.05;6.03;;;7.90;99.90;;;;;;5077907;28;20146;-46
2023/01/13 05:55:34;;;;;;;31.73;5.88;;;7.90;99.90;;;;;;5096457;28;20496;-45
2023/01/13 05:57:59;;;;;;;28.63;6.72;;;7.90;99.90;;;;;;5095355;28;20044;-46
2023/01/13 06:00:25;;;;;;;29.52;6.30;;;7.90;99.90;;;;;;5095843;28;20043;-46
2023/01/13 06:02:51;;;;;;;27.08;6.22;;;8.00;99.90;;;;;;5095903;28;20120;-45
2023/01/13 06:05:16;;;;;;;32.03;6.57;;;7.90;99.90;;;;;;5078609;28;20043;-46
2023/01/13 06:07:42;;;;;;;30.88;5.63;;;8.00;99.90;;;;;;5076960;28;20036;-47
2023/01/13 06:10:08;;;;;;;33.17;5.70;;;7.90;99.90;;;;;;5061358;28;20057;-46
2023/01/13 06:12:34;;;;;;;24.60;5.97;;;7.90;99.90;;;;;;5096334;28;20040;-46
2023/01/13 06:15:00;;;;;;;28.83;6.40;;;7.90;99.90;;;;;;5096078;28;20136;-46
2023/01/13 06:17:25;;;;;;;30.05;6.07;;;7.90;99.90;;;;;;5094817;28;20105;-48
2023/01/13 06:19:51;;;;;;;35.42;7.05;;;7.90;99.90;;;;;;5096321;28;20575;-48
2023/01/13 06:22:31;;;;;;;26.88;5.32;;;7.90;99.90;;;;;;5077712;28;20618;-45
2023/01/13 06:24:57;;;;;;;31.92;6.15;;;7.90;99.90;;;;;;5096077;28;20043;-45
2023/01/13 06:27:23;;;;;;;27.88;5.03;;;7.90;99.90;;;;;;5076908;28;20043;-46
2023/01/13 06:29:49;;;;;;;25.40;5.70;;;7.80;99.90;;;;;;5096798;28;20046;-45
2023/01/13 06:32:21;;;;;;;28.08;5.78;;;7.80;99.90;;;;;;5096284;28;20467;-47
2023/01/13 06:34:57;;;;;;;28.30;6.15;;;7.70;99.90;;;;;;5096586;28;20086;-49
2023/01/13 06:37:25;;;;;;;28.52;5.25;;;7.70;99.90;;;;;;5076913;28;20146;-45
2023/01/13 06:39:55;;;;;;;30.77;5.65;;;7.70;99.90;;;;;;5077266;28;20050;-47
2023/01/13 06:45:06;;;;;;;25.15;5.00;;;7.60;99.90;;;;;;5095143;28;20512;-46
2023/01/13 06:47:32;;;;;;;32.50;6.18;;;7.50;99.90;;;;;;5076596;28;20043;-46
2023/01/13 06:49:58;;;;;;;24.58;4.65;;;7.50;99.90;;;;;;5098978;28;20108;-48
2023/01/13 06:52:26;;;;;;;31.50;5.57;;;7.50;99.90;;;;;;5099748;28;20043;-46
2023/01/13 06:54:52;;;;;;;29.15;5.93;;;7.40;99.90;;;;;;5099277;28;20736;-45
2023/01/13 06:57:17;;;;;;;31.30;6.18;;;7.30;99.90;;;;;;5081092;28;20046;-46
2023/01/13 06:59:43;;;;;;;29.52;6.25;;;7.30;99.90;;;;;;5099543;28;20048;-46
2023/01/13 07:02:08;;;;;;;36.30;7.03;;;7.20;99.90;;;;;;5100114;28;20032;-48
2023/01/13 07:04:34;;;;;;;32.05;6.40;;;7.30;99.90;;;;;;5080964;28;20144;-46
2023/01/13 07:07:00;;;;;;;25.45;5.75;;;7.20;99.90;;;;;;5098530;28;20047;-45
2023/01/13 07:09:25;;;;;;;32.00;5.43;;;7.20;99.90;;;;;;5099292;28;20511;-46
2023/01/13 07:11:51;;;;;;;34.55;6.28;;;7.10;99.90;;;;;;5099812;28;20139;-46
2023/01/13 07:17:02;;;;;;;31.85;6.22;;;7.10;99.90;;;;;;5097211;28;20085;-47
2023/01/13 07:19:28;;;;;;;25.77;5.90;;;7.10;99.90;;;;;;5080553;28;20040;-46
2023/01/13 07:21:53;;;;;;;39.92;6.03;;;7.10;99.90;;;;;;5099059;28;20414;-46
2023/01/13 07:24:21;;;;;;;32.05;6.40;;;7.10;99.90;;;;;;5099318;28;20040;-47
2023/01/13 07:26:47;;;;;;;35.42;7.32;;;7.10;99.90;;;;;;5080988;28;20122;-48
2023/01/13 07:29:13;;;;;;;30.83;7.00;;;7.00;99.90;;;;;;5081528;28;20060;-46
2023/01/13 07:31:39;;;;;;;33.00;6.43;;;7.10;99.90;;;;;;5098395;28;20472;-45
2023/01/13 07:34:06;;;;;;;35.28;8.40;;;7.10;99.90;;;;;;5079489;28;20494;-46
2023/01/13 07:36:31;;;;;;;31.27;6.05;;;7.10;99.90;;;;;;5098543;28;20510;-48
2023/01/13 07:38:57;;;;;;;30.40;5.43;;;7.10;99.90;;;;;;5099613;28;20044;-46
2023/01/13 07:44:09;;;;;;;34.00;7.65;;;7.10;99.90;;;;;;5098298;28;20109;-48
2023/01/13 07:46:36;;;;;;;34.10;6.25;;;7.10;99.90;;;;;;5097607;28;20043;-47
2023/01/13 07:49:03;;;;;;;33.45;5.82;;;7.10;99.90;;;;;;5098852;28;20421;-46
2023/01/13 07:51:29;;;;;;;27.95;6.90;;;7.20;99.90;;;;;;5098057;28;20192;-47
2023/01/13 07:53:54;;;;;;;37.50;6.35;;;7.20;99.90;;;;;;5098748;28;20427;-47
2023/01/13 07:56:20;;;;;;;25.73;6.10;;;7.20;99.90;;;;;;5098787;28;20069;-47
2023/01/13 07:58:49;;;;;;;36.97;6.13;;;7.30;99.90;;;;;;5098989;28;20144;-47
2023/01/13 08:01:15;;;;;;;25.77;6.03;;;7.30;99.90;;;;;;5098374;28;20578;-46
2023/01/13 08:03:41;;;;;;;35.92;7.30;;;7.30;99.90;;;;;;5097761;28;20176;-47
2023/01/13 08:06:08;;;;;;;31.95;6.00;;;7.30;99.90;;;;;;5097751;28;20039;-46
2023/01/13 08:08:34;;;;;;;38.22;7.07;;;7.40;99.90;;;;;;5098504;28;20412;-46
2023/01/13 08:11:04;;;;;;;34.08;8.48;;;7.40;99.90;;;;;;5095468;28;20095;-48
2023/01/13 08:13:30;;;;;;;29.88;5.72;;;7.40;99.90;;;;;;5079295;28;20394;-47
2023/01/13 08:16:08;;;;;;;36.80;6.03;;;7.40;99.90;;;;;;5084835;28;20067;-48
2023/01/13 08:18:34;;;;;;;32.00;7.35;;;7.50;99.90;;;;;;5092424;28;21335;-46
2023/01/13 08:21:09;;;;;;;30.13;6.68;;;7.50;99.90;;;;;;5084224;28;20382;-46
2023/01/13 08:23:35;;;;;;;23.05;5.95;;;7.50;99.90;;;;;;5095320;28;20043;-47
2023/01/13 08:26:09;;;;;;;27.83;5.63;;;7.50;99.90;;;;;;5082354;28;20051;-47
2023/01/13 08:28:35;;;;;;;27.65;6.03;;;7.50;99.90;;;;;;5091622;28;20476;-47
2023/01/13 08:31:02;;;;;;;31.38;6.43;;;7.50;99.90;;;;;;5096967;28;20551;-46
2023/01/13 08:33:29;;;;;;;28.48;6.78;;;7.50;99.90;;;;;;5094835;28;20043;-46
2023/01/13 08:35:55;;;;;;;29.13;6.10;;;7.50;99.90;;;;;;5097550;28;20051;-52
2023/01/13 08:38:21;;;;;;;28.25;5.78;;;7.60;99.90;;;;;;5098438;28;20043;-47
2023/01/13 08:40:46;;;;;;;31.95;6.97;;;7.60;99.90;;;;;;5098128;28;20048;-47
2023/01/13 08:43:12;;;;;;;36.08;5.75;;;7.70;99.90;;;;;;5096651;28;20051;-47
2023/01/13 08:45:38;;;;;;;31.75;5.75;;;7.70;99.90;;;;;;5097194;28;20082;-47
2023/01/13 08:48:04;;;;;;;31.15;6.63;;;7.70;99.90;;;;;;5093844;28;20051;-46
2023/01/13 08:50:30;;;;;;;28.98;7.10;;;7.70;99.90;;;;;;5096075;28;20381;-46
2023/01/13 08:52:56;;;;;;;35.25;7.05;;;7.70;99.90;;;;;;5096912;28;20035;-46
2023/01/13 08:55:22;;;;;;;37.45;7.30;;;7.70;99.90;;;;;;5079538;28;20062;-47
2023/01/13 08:57:48;;;;;;;32.03;6.63;;;7.60;99.90;;;;;;5078555;28;20047;-46
2023/01/13 09:00:15;;;;;;;31.83;6.10;;;7.40;99.90;;;;;;5098121;28;20135;-47
2023/01/13 09:02:41;;;;;;;27.17;6.10;;;7.30;99.90;;;;;;5096982;28;20123;-46
2023/01/13 09:05:09;;;;;;;31.70;8.02;;;7.30;99.90;;;;;;5097703;28;20048;-48
2023/01/13 09:07:36;;;;;;;34.13;7.10;;;7.20;99.90;;;;;;5096944;28;20043;-50
2023/01/13 09:10:05;;;;;;;32.45;6.13;;;7.20;99.90;;;;;;5097932;28;20232;-48
2023/01/13 09:15:17;;;;;;;28.73;5.50;;;7.20;99.90;;;;;;5097874;28;20465;-49
2023/01/13 09:17:43;;;;;;;37.70;7.70;;;7.20;99.90;;;;;;5078248;28;20054;-46
2023/01/13 09:20:10;;;;;;;31.33;6.28;;;7.30;99.90;;;;;;5096817;28;20144;-47
2023/01/13 09:22:38;;;;;;;40.40;7.22;;;7.30;99.90;;;;;;5095871;28;20040;-47
2023/01/13 09:25:03;;;;;;;37.05;7.90;;;7.40;99.90;;;;;;5096780;28;20083;-47
2023/01/13 09:27:29;;;;;;;31.30;6.50;;;7.40;99.90;;;;;;5095969;28;20138;-48
2023/01/13 09:29:55;;;;;;;26.65;5.40;;;7.40;99.90;;;;;;5078758;28;20042;-48
2023/01/13 09:32:21;;;;;;;32.05;5.88;;;7.40;99.90;;;;;;5078450;28;20043;-47
2023/01/13 09:35:02;;;;;;;28.70;6.15;;;7.50;99.90;;;;;;5096138;28;20043;-49
2023/01/13 09:37:32;;;;;;;27.55;5.35;;;7.50;99.90;;;;;;5096815;28;20052;-48
2023/01/13 09:39:58;;;;;;;29.60;6.03;;;7.50;99.90;;;;;;5096674;28;20795;-46
2023/01/13 09:45:24;;;;;;;30.63;5.18;;;7.50;99.90;;;;;;5097238;28;20160;-47
2023/01/13 09:48:10;;;;;;;36.92;5.38;;;7.40;99.90;;;;;;5098249;28;20495;-46
2023/01/13 09:50:44;;;;;;;23.88;5.93;;;7.50;99.90;;;;;;5097879;28;20478;-48
2023/01/13 09:53:24;;;;;;;29.55;4.95;;;7.30;99.90;;;;;;5076985;28;20489;-50
2023/01/13 09:55:51;;;;;;;29.15;6.22;;;7.30;99.90;;;;;;5095879;28;20100;-48
2023/01/13 09:58:18;;;;;;;28.10;5.93;;;7.20;99.90;;;;;;5078738;28;20051;-47
2023/01/13 10:01:02;;;;;;;28.42;5.25;;;7.20;99.90;;;;;;5096826;28;20120;-46
2023/01/13 10:03:30;;;;;;;29.70;5.18;;;7.20;99.90;;;;;;5095632;28;20050;-46
2023/01/13 10:06:17;;;;;;;30.88;6.05;;;7.20;99.90;;;;;;5095494;28;20035;-50
2023/01/13 10:08:46;;;;;;;22.25;4.90;;;7.20;99.90;;;;;;5096556;28;20039;-48
2023/01/13 10:14:21;;;;;;;29.95;5.13;;;7.30;99.90;;;;;;5095000;28;20150;-45
2023/01/13 10:17:12;;;;;;;42.55;8.80;;;7.30;99.90;;;;;;5095228;28;20055;-46
2023/01/13 10:19:42;;;;;;;29.73;4.28;;;7.30;99.90;;;;;;5077116;28;20050;-47
2023/01/13 10:22:11;;;;;;;25.23;5.30;;;7.40;99.90;;;;;;5094923;28;20043;-48
2023/01/13 10:24:57;;;;;;;22.70;5.38;;;7.50;99.90;;;;;;5095037;28;20051;-51
2023/01/13 10:27:37;;;;;;;24.38;5.65;;;7.50;99.90;;;;;;5095872;28;20398;-48
2023/01/13 10:30:20;;;;;;;30.25;5.47;;;7.60;99.90;;;;;;5095576;28;20443;-47
2023/01/13 10:32:52;;;;;;;27.20;6.63;;;7.60;99.90;;;;;;5096024;28;20667;-49
2023/01/13 10:35:37;;;;;;;29.52;5.40;;;7.60;99.90;;;;;;5096197;28;20047;-49
2023/01/13 10:38:03;;;;;;;28.23;6.53;;;7.70;99.90;;;;;;5077584;28;20059;-47
2023/01/13 10:40:29;;;;;;;34.72;5.30;;;7.70;99.90;;;;;;5096409;28;20048;-48
2023/01/13 10:43:05;;;;;;;24.77;5.68;;;7.70;99.90;;;;;;5095677;28;20498;-48
2023/01/13 10:45:30;;;;;;;21.02;4.28;;;7.70;99.90;;;;;;5095490;28;20075;-46
2023/01/13 10:48:06;;;;;;;24.98;5.55;;;7.70;99.90;;;;;;5094972;28;20163;-46
2023/01/13 10:50:35;;;;;;;23.02;4.78;;;7.70;99.90;;;;;;5095370;28;20035;-50
2023/01/13 10:53:18;;;;;;;26.73;5.00;;;7.80;99.90;;;;;;5076351;28;20058;-47
2023/01/13 10:55:58;;;;;;;29.00;5.63;;;7.80;99.90;;;;;;5076076;28;20482;-50
2023/01/13 10:58:24;;;;;;;18.67;4.43;;;7.80;99.90;;;;;;5094878;28;20039;-47
2023/01/13 11:01:02;;;;;;;20.48;4.40;;;7.90;99.90;;;;;;5095285;28;20044;-46
2023/01/13 11:03:43;;;;;;;21.30;4.57;;;7.90;99.90;;;;;;5094517;28;20061;-50
2023/01/13 11:06:20;;;;;;;24.25;4.68;;;8.00;99.90;;;;;;5094752;28;20056;-49
2023/01/13 11:08:48;;;;;;;20.77;4.25;;;8.00;99.90;;;;;;5078257;28;20044;-51
2023/01/13 11:11:41;;;;;;;17.77;3.78;;;8.00;99.90;;;;;;5095915;28;20096;-47
2023/01/13 11:14:38;;;;;;;19.27;4.82;;;8.10;99.90;;;;;;5093171;28;20036;-49
2023/01/13 11:17:28;;;;;;;19.02;5.88;;;8.10;99.90;;;;;;5093466;28;20054;-48
2023/01/13 11:20:11;;;;;;;18.83;4.05;;;8.20;99.90;;;;;;5094834;28;20052;-48
2023/01/13 11:22:50;;;;;;;20.27;3.85;;;8.20;99.90;;;;;;5094498;28;20046;-48
2023/01/13 11:25:41;;;;;;;18.63;5.35;;;8.20;99.90;;;;;;5095613;28;20035;-48
2023/01/13 11:28:13;;;;;;;24.25;6.13;;;8.20;99.90;;;;;;5096059;28;20556;-51
2023/01/13 11:31:09;;;;;;;24.77;5.88;;;8.20;99.90;;;;;;5076800;28;20645;-50
2023/01/13 11:33:40;;;;;;;21.13;4.93;;;8.20;99.90;;;;;;5094571;28;20500;-48
2023/01/13 11:36:31;;;;;;;22.13;6.00;;;8.30;99.90;;;;;;5098727;28;20039;-50
2023/01/13 11:39:33;;;;;;;23.50;5.07;;;8.30;99.90;;;;;;5099149;28;20040;-47
2023/01/13 11:42:20;;;;;;;20.55;4.82;;;8.30;99.90;;;;;;5053971;28;20039;-49
2023/01/13 11:45:09;;;;;;;23.92;4.20;;;8.30;99.90;;;;;;5053964;28;20067;-50
2023/01/13 11:47:35;;;;;;;25.13;7.22;;;8.40;99.90;;;;;;5052396;28;20036;-49
2023/01/13 11:50:02;;;;;;;26.25;9.70;;;8.40;99.90;;;;;;5049404;28;20045;-50
2023/01/13 11:53:13;;;;;;;23.73;9.60;;;8.40;99.90;;;;;;5035884;28;20116;-50
2023/01/13 11:56:18;;;;;;;21.40;6.78;;;8.50;99.90;;;;;;4992884;28;20141;-49
2023/01/13 11:59:15;;;;;;;16.23;4.53;;;8.50;99.90;;;;;;4991878;28;20058;-48
2023/01/13 12:02:03;;;;;;;23.63;4.85;;;8.60;99.90;;;;;;4991509;28;20079;-49
2023/01/13 12:04:47;;;;;;;19.45;5.40;;;8.60;99.90;;;;;;4993556;28;20061;-49
2023/01/13 12:07:20;;;;;;;21.30;5.00;;;8.60;99.90;;;;;;4975429;28;20046;-46
2023/01/13 12:09:59;;;;;;;21.48;4.00;;;8.70;99.90;;;;;;4993774;28;20137;-47
2023/01/13 12:12:43;;;;;;;22.10;4.40;;;8.70;99.90;;;;;;4991143;28;21545;-49
2023/01/13 12:15:21;;;;;;;15.38;4.60;;;8.70;99.90;;;;;;4997844;28;20057;-47
2023/01/13 12:18:12;;;;;;;19.05;3.65;;;8.70;99.90;;;;;;5040725;28;20364;-48
2023/01/13 12:20:59;;;;;;;16.65;3.67;;;8.70;99.90;;;;;;5042314;28;20052;-48
2023/01/13 12:23:42;;;;;;;22.70;4.60;;;8.70;99.90;;;;;;5035275;28;20032;-49
2023/01/13 12:26:12;;;;;;;108.63;64.68;;;8.70;99.90;;;;;;5017448;28;20239;-48
2023/01/13 12:28:58;;;;;;;45.50;22.33;;;8.60;99.90;;;;;;5036326;28;20547;-46
2023/01/13 12:31:25;;;;;;;29.92;10.90;;;8.70;99.90;;;;;;5074607;28;20599;-49
2023/01/13 12:34:15;;;;;;;20.45;6.07;;;8.60;99.90;;;;;;5095644;28;20040;-49
2023/01/13 12:36:53;;;;;;;19.60;6.03;;;8.60;99.90;;;;;;5086821;28;20553;-48
2023/01/13 12:39:44;;;;;;;18.90;6.68;;;8.60;99.90;;;;;;5096042;28;20050;-48
2023/01/13 12:45:09;;;;;;;24.48;9.13;;;8.60;99.90;;;;;;5075019;28;20082;-49
2023/01/13 12:47:36;;;;;;;15.80;4.45;;;8.60;99.90;;;;;;5095044;28;20076;-47
2023/01/13 12:50:26;;;;;;;20.05;4.53;;;8.60;99.90;;;;;;5092129;28;20035;-48
2023/01/13 12:53:19;;;;;;;18.08;5.57;;;8.60;99.90;;;;;;5094697;28;20042;-48
2023/01/13 12:55:50;;;;;;;15.52;4.80;;;8.60;99.90;;;;;;5093471;28;20368;-49
2023/01/13 12:58:23;;;;;;;12.27;5.00;;;8.70;99.90;;;;;;5095568;28;20046;-48
2023/01/13 13:01:05;;;;;;;14.70;3.58;;;8.70;99.90;;;;;;5095432;28;20473;-50
2023/01/13 13:03:35;;;;;;;18.88;3.85;;;8.60;99.90;;;;;;5089495;28;20032;-47
2023/01/13 13:06:02;;;;;;;18.25;5.07;;;8.70;99.90;;;;;;5074344;28;20454;-49
2023/01/13 13:08:50;;;;;;;16.40;3.75;;;8.70;99.90;;;;;;5091839;28;20122;-46
2023/01/13 13:14:12;;;;;;;17.75;4.20;;;8.80;99.90;;;;;;5092306;28;20050;-50
2023/01/13 13:16:51;;;;;;;13.35;3.28;;;8.80;99.90;;;;;;5066413;28;20055;-50
2023/01/13 13:19:17;;;;;;;18.33;4.57;;;8.80;99.90;;;;;;5078378;28;20067;-47
2023/01/13 13:22:08;;;;;;;19.00;3.35;;;8.80;99.90;;;;;;5076603;28;20104;-48
2023/01/13 13:24:33;;;;;;;12.77;3.53;;;8.80;99.90;;;;;;5067575;28;20048;-49
2023/01/13 13:27:19;;;;;;;21.08;3.55;;;8.80;99.90;;;;;;5090737;28;20449;-51
2023/01/13 13:29:44;;;;;;;14.27;3.65;;;8.70;99.90;;;;;;5069339;28;20047;-48
2023/01/13 13:32:30;;;;;;;17.67;3.83;;;8.70;99.90;;;;;;5095194;28;20506;-50
2023/01/13 13:35:06;;;;;;;13.13;2.95;;;8.70;99.90;;;;;;5084064;28;20035;-48
2023/01/13 13:49:08;;;;;;;33.30;17.55;;;8.60;99.90;;;;;;5088118;28;20062;-46
2023/01/13 13:51:41;;;;;;;27.60;12.95;;;8.60;99.90;;;;;;5094598;28;20028;-47
2023/01/13 13:54:18;;;;;;;26.58;10.32;;;8.60;99.90;;;;;;5082139;28;20296;-46
2023/01/13 13:56:45;;;;;;;27.05;13.38;;;8.60;99.90;;;;;;5073941;28;20043;-46
2023/01/13 13:59:20;;;;;;;35.38;18.58;;;8.60;99.90;;;;;;5070824;28;20070;-47
2023/01/13 14:01:52;;;;;;;29.13;16.40;;;8.60;99.90;;;;;;5086918;28;20473;-46
2023/01/13 14:04:24;;;;;;;31.48;17.98;;;8.60;99.90;;;;;;5090372;28;20054;-47
2023/01/13 14:06:58;;;;;;;17.30;6.40;;;8.50;99.90;;;;;;5082770;28;20040;-51